Time;durP1;ratioP1;P1;durP2;ratioP2;P2;SDS_P1;SDS_P2;PMS_P1;PMS_P2;Temp;Humidity;BMP_temperature;BMP_pressure;BME280_temperature;BME280_humidity;BME280_pressure;Samples;Min_cycle;Max_cycle;Signal;HPM_P1;HPM_P2
2022/03/29 00:01:49;;;;;;;6.40;4.72;;;;;;;;;;5066732;28;20040;-69
2022/03/29 00:04:16;;;;;;;6.72;4.50;;;;;;;;;;5066169;28;20051;-69
2022/03/29 00:06:42;;;;;;;8.57;5.97;;;;;;;;;;5067087;28;20053;-68
2022/03/29 00:09:08;;;;;;;8.50;5.45;;;;;;;;;;5068227;28;20499;-67
2022/03/29 00:11:34;;;;;;;7.70;5.25;;;;;;;;;;5050315;28;20406;-67
2022/03/29 00:14:02;;;;;;;6.50;5.20;;;;;;;;;;5066775;28;20099;-67
2022/03/29 00:16:28;;;;;;;7.07;5.28;;;;;;;;;;5066463;28;20094;-67
2022/03/29 00:18:54;;;;;;;7.65;5.13;;;;;;;;;;5066674;28;20040;-67
2022/03/29 00:21:21;;;;;;;7.38;5.63;;;;;;;;;;5066598;28;20048;-68
2022/03/29 00:23:47;;;;;;;6.95;5.13;;;;;;;;;;5066395;28;20045;-68
2022/03/29 00:26:14;;;;;;;7.35;5.68;;;;;;;;;;5067401;28;20043;-68
2022/03/29 00:28:40;;;;;;;8.13;5.38;;;;;;;;;;5067854;28;20045;-69
2022/03/29 00:31:06;;;;;;;6.53;5.30;;;;;;;;;;5067921;28;20585;-69
2022/03/29 00:33:32;;;;;;;8.88;5.70;;;;;;;;;;5068101;28;20120;-69
2022/03/29 00:35:58;;;;;;;8.13;5.38;;;;;;;;;;5067667;28;20052;-70
2022/03/29 00:38:24;;;;;;;7.00;5.22;;;;;;;;;;5067550;28;20632;-71
2022/03/29 00:40:50;;;;;;;6.75;5.30;;;;;;;;;;5067849;28;20140;-71
2022/03/29 00:43:16;;;;;;;7.75;5.22;;;;;;;;;;5048864;28;20044;-69
2022/03/29 00:45:45;;;;;;;7.78;5.10;;;;;;;;;;5049224;28;20447;-69
2022/03/29 00:48:12;;;;;;;7.10;5.13;;;;;;;;;;5049559;28;20115;-68
2022/03/29 00:50:39;;;;;;;9.45;5.75;;;;;;;;;;5067774;28;20036;-69
2022/03/29 00:53:05;;;;;;;9.00;5.53;;;;;;;;;;5067297;28;20441;-68
2022/03/29 00:55:32;;;;;;;7.55;5.63;;;;;;;;;;5065227;28;20125;-68
2022/03/29 00:57:58;;;;;;;9.82;6.15;;;;;;;;;;5067477;28;20037;-68
2022/03/29 01:00:25;;;;;;;6.80;4.95;;;;;;;;;;5065720;28;20049;-69
2022/03/29 01:02:51;;;;;;;9.20;5.68;;;;;;;;;;5067329;28;20052;-68
2022/03/29 01:05:17;;;;;;;10.20;5.40;;;;;;;;;;5067236;28;20131;-68
2022/03/29 01:07:43;;;;;;;7.05;5.35;;;;;;;;;;5065623;28;20056;-70
2022/03/29 01:10:09;;;;;;;7.25;5.55;;;;;;;;;;5065249;28;20372;-68
2022/03/29 01:12:37;;;;;;;9.35;6.05;;;;;;;;;;5049145;28;20040;-68
2022/03/29 01:15:05;;;;;;;6.82;5.57;;;;;;;;;;5048724;28;20087;-67
2022/03/29 01:17:38;;;;;;;7.15;5.30;;;;;;;;;;5067028;28;20119;-69
2022/03/29 01:20:07;;;;;;;8.63;5.80;;;;;;;;;;5066704;28;20048;-69
2022/03/29 01:22:33;;;;;;;8.82;6.07;;;;;;;;;;5047487;28;20511;-69
2022/03/29 01:24:59;;;;;;;8.02;5.63;;;;;;;;;;5067329;28;20487;-69
2022/03/29 01:27:25;;;;;;;7.30;6.10;;;;;;;;;;5065794;28;20052;-69
2022/03/29 01:29:57;;;;;;;11.30;6.03;;;;;;;;;;5049113;28;20071;-69
2022/03/29 01:32:23;;;;;;;8.48;5.85;;;;;;;;;;5065589;28;20109;-70
2022/03/29 01:34:49;;;;;;;7.38;5.95;;;;;;;;;;5064862;28;20123;-69
2022/03/29 01:37:16;;;;;;;9.75;5.95;;;;;;;;;;5066897;28;20348;-68
2022/03/29 01:39:42;;;;;;;9.52;6.25;;;;;;;;;;5048926;28;20040;-68
2022/03/29 01:42:08;;;;;;;9.18;5.93;;;;;;;;;;5066705;28;20044;-69
2022/03/29 01:44:34;;;;;;;9.77;6.45;;;;;;;;;;5066652;28;20044;-68
2022/03/29 01:47:01;;;;;;;10.73;6.40;;;;;;;;;;5065695;28;20044;-69
2022/03/29 01:49:27;;;;;;;8.77;6.18;;;;;;;;;;5047615;28;20044;-68
2022/03/29 01:51:53;;;;;;;8.30;6.10;;;;;;;;;;5065728;28;20040;-68
2022/03/29 01:54:20;;;;;;;9.27;6.05;;;;;;;;;;5064570;28;20047;-68
2022/03/29 01:56:46;;;;;;;11.45;6.57;;;;;;;;;;5066575;28;20040;-69
2022/03/29 01:59:12;;;;;;;9.27;6.60;;;;;;;;;;5065988;28;20525;-68
2022/03/29 02:01:45;;;;;;;8.57;6.47;;;;;;;;;;5066604;28;20044;-68
2022/03/29 02:04:12;;;;;;;11.02;6.03;;;;;;;;;;5066266;28;20042;-68
2022/03/29 02:06:38;;;;;;;9.27;6.75;;;;;;;;;;5048654;28;20047;-68
2022/03/29 02:09:06;;;;;;;8.52;6.00;;;;;;;;;;5066087;28;20167;-68
2022/03/29 02:11:33;;;;;;;9.27;6.65;;;;;;;;;;5066597;28;20438;-68
2022/03/29 02:13:59;;;;;;;9.50;6.78;;;;;;;;;;5065731;28;20414;-68
2022/03/29 02:16:25;;;;;;;8.68;6.30;;;;;;;;;;5065086;28;20198;-69
2022/03/29 02:18:51;;;;;;;9.10;6.50;;;;;;;;;;5065941;28;20052;-69
2022/03/29 02:21:17;;;;;;;8.93;6.55;;;;;;;;;;5048353;28;20072;-69
2022/03/29 02:23:43;;;;;;;10.57;7.10;;;;;;;;;;5065409;28;20063;-69
2022/03/29 02:26:10;;;;;;;9.48;6.40;;;;;;;;;;5066501;28;20166;-69
2022/03/29 02:28:36;;;;;;;9.02;6.80;;;;;;;;;;5066292;28;20070;-69
2022/03/29 02:31:02;;;;;;;8.20;6.00;;;;;;;;;;5047988;28;20048;-69
2022/03/29 02:33:28;;;;;;;10.95;6.85;;;;;;;;;;5066245;28;20048;-69
2022/03/29 02:35:56;;;;;;;9.45;6.63;;;;;;;;;;5065043;28;20078;-69
2022/03/29 02:38:22;;;;;;;10.43;6.45;;;;;;;;;;5064819;28;20437;-69
2022/03/29 02:40:49;;;;;;;8.63;6.38;;;;;;;;;;5047929;28;20467;-69
2022/03/29 02:43:15;;;;;;;9.93;6.95;;;;;;;;;;5064832;28;20198;-70
2022/03/29 02:45:41;;;;;;;13.77;7.28;;;;;;;;;;5064448;28;20044;-70
2022/03/29 02:48:07;;;;;;;19.63;7.20;;;;;;;;;;5064062;28;20059;-69
2022/03/29 02:50:33;;;;;;;12.38;7.00;;;;;;;;;;5064630;28;20040;-68
2022/03/29 02:53:01;;;;;;;8.13;6.18;;;;;;;;;;5066498;28;20055;-69
2022/03/29 02:55:29;;;;;;;9.00;5.80;;;;;;;;;;5065095;28;20078;-69
2022/03/29 02:57:56;;;;;;;12.15;6.38;;;;;;;;;;5065879;28;20097;-69
2022/03/29 03:00:22;;;;;;;12.40;6.90;;;;;;;;;;5064588;28;20143;-69
2022/03/29 03:02:54;;;;;;;10.20;6.00;;;;;;;;;;5064885;28;20067;-69
2022/03/29 03:05:20;;;;;;;10.80;6.43;;;;;;;;;;5064485;28;20045;-68
2022/03/29 03:07:46;;;;;;;11.55;7.07;;;;;;;;;;5067835;28;20067;-69
2022/03/29 03:10:12;;;;;;;12.07;6.65;;;;;;;;;;5069193;28;20460;-69
2022/03/29 03:12:43;;;;;;;10.25;6.45;;;;;;;;;;5067778;28;20041;-68
2022/03/29 03:15:10;;;;;;;10.35;7.22;;;;;;;;;;5067282;28;21241;-68
2022/03/29 03:17:36;;;;;;;9.77;6.53;;;;;;;;;;5067163;28;20040;-68
2022/03/29 03:20:02;;;;;;;9.48;6.88;;;;;;;;;;5068413;28;20037;-68
2022/03/29 03:22:28;;;;;;;9.13;6.22;;;;;;;;;;5068991;28;20045;-69
2022/03/29 03:24:55;;;;;;;10.32;7.03;;;;;;;;;;5067718;28;20455;-69
2022/03/29 03:27:21;;;;;;;11.20;7.03;;;;;;;;;;5067109;28;20051;-69
2022/03/29 03:29:47;;;;;;;9.25;6.93;;;;;;;;;;5067598;28;20040;-69
2022/03/29 03:32:13;;;;;;;11.23;6.80;;;;;;;;;;5066714;28;20048;-69
2022/03/29 03:34:40;;;;;;;8.52;6.78;;;;;;;;;;5068084;28;20364;-69
2022/03/29 03:37:06;;;;;;;10.32;7.28;;;;;;;;;;5067559;28;20348;-69
2022/03/29 03:39:34;;;;;;;8.60;6.43;;;;;;;;;;5066669;28;20041;-68
2022/03/29 03:42:00;;;;;;;14.30;7.32;;;;;;;;;;5068210;28;20444;-69
2022/03/29 03:44:27;;;;;;;10.25;6.65;;;;;;;;;;5067806;28;20074;-69
2022/03/29 03:46:53;;;;;;;9.98;7.28;;;;;;;;;;5066244;28;20041;-69
2022/03/29 03:49:19;;;;;;;8.98;7.00;;;;;;;;;;5068379;28;20127;-69
2022/03/29 03:51:45;;;;;;;10.00;6.72;;;;;;;;;;5068108;28;20045;-69
2022/03/29 03:54:11;;;;;;;10.23;6.68;;;;;;;;;;5066601;28;20044;-69
2022/03/29 03:56:38;;;;;;;9.55;6.65;;;;;;;;;;5066346;28;20049;-70
2022/03/29 03:59:04;;;;;;;10.75;6.68;;;;;;;;;;5066638;28;20055;-70
2022/03/29 04:01:30;;;;;;;12.10;6.95;;;;;;;;;;5066727;28;20170;-70
2022/03/29 04:03:56;;;;;;;10.90;6.82;;;;;;;;;;5050291;28;20047;-70
2022/03/29 04:06:22;;;;;;;9.18;6.75;;;;;;;;;;5066267;28;20044;-71
2022/03/29 04:08:48;;;;;;;8.68;7.00;;;;;;;;;;5049517;28;20045;-70
2022/03/29 04:11:14;;;;;;;9.88;6.95;;;;;;;;;;5066090;28;20041;-70
2022/03/29 04:13:40;;;;;;;8.82;6.68;;;;;;;;;;5066025;28;20070;-71
2022/03/29 04:16:06;;;;;;;11.38;7.35;;;;;;;;;;5065255;28;20053;-70
2022/03/29 04:18:32;;;;;;;10.00;7.15;;;;;;;;;;5067468;28;20080;-70
2022/03/29 04:20:58;;;;;;;11.50;6.90;;;;;;;;;;5065764;28;20244;-71
2022/03/29 04:23:24;;;;;;;10.35;7.53;;;;;;;;;;5049221;28;20048;-71
2022/03/29 04:25:50;;;;;;;10.10;7.50;;;;;;;;;;5065985;28;20445;-70
2022/03/29 04:28:16;;;;;;;10.27;7.10;;;;;;;;;;5067279;28;20440;-71
2022/03/29 04:30:42;;;;;;;10.35;7.72;;;;;;;;;;5065967;28;20040;-70
2022/03/29 04:33:09;;;;;;;10.73;7.60;;;;;;;;;;5065671;28;20041;-70
2022/03/29 04:35:35;;;;;;;10.23;6.75;;;;;;;;;;5049075;28;20416;-70
2022/03/29 04:38:01;;;;;;;10.40;7.50;;;;;;;;;;5066275;28;20127;-70
2022/03/29 04:40:27;;;;;;;10.70;8.02;;;;;;;;;;5065065;28;20413;-70
2022/03/29 04:42:53;;;;;;;9.85;7.20;;;;;;;;;;5067049;28;20416;-70
2022/03/29 04:45:19;;;;;;;10.00;7.30;;;;;;;;;;5065329;28;20127;-70
2022/03/29 04:47:46;;;;;;;9.55;6.82;;;;;;;;;;5065827;28;20036;-69
2022/03/29 04:50:13;;;;;;;11.27;7.75;;;;;;;;;;5065017;28;20094;-70
2022/03/29 04:52:44;;;;;;;10.95;8.27;;;;;;;;;;5067187;28;20036;-69
2022/03/29 04:55:10;;;;;;;11.48;8.23;;;;;;;;;;5064746;28;20044;-70
2022/03/29 04:57:36;;;;;;;10.90;7.85;;;;;;;;;;5065192;28;20048;-70
2022/03/29 05:00:04;;;;;;;10.23;7.63;;;;;;;;;;5049391;28;20059;-70
2022/03/29 05:02:31;;;;;;;10.50;7.05;;;;;;;;;;5066750;28;20045;-70
2022/03/29 05:04:57;;;;;;;9.93;7.38;;;;;;;;;;5067206;28;20497;-70
2022/03/29 05:07:23;;;;;;;13.18;7.25;;;;;;;;;;5066622;28;20415;-70
2022/03/29 05:09:50;;;;;;;10.68;7.93;;;;;;;;;;5067493;28;20040;-69
2022/03/29 05:12:16;;;;;;;10.40;6.93;;;;;;;;;;5067325;28;20078;-70
2022/03/29 05:14:43;;;;;;;10.60;7.30;;;;;;;;;;5065900;28;20149;-69
2022/03/29 05:17:09;;;;;;;10.20;7.20;;;;;;;;;;5065124;28;20048;-69
2022/03/29 05:19:35;;;;;;;9.40;7.20;;;;;;;;;;5065914;28;20490;-69
2022/03/29 05:22:01;;;;;;;10.27;7.60;;;;;;;;;;5067105;28;20422;-69
2022/03/29 05:24:27;;;;;;;9.73;7.47;;;;;;;;;;5065247;28;20131;-69
2022/03/29 05:26:53;;;;;;;10.98;7.25;;;;;;;;;;5066731;28;20068;-69
2022/03/29 05:29:20;;;;;;;10.40;7.85;;;;;;;;;;5059280;28;20045;-68
2022/03/29 05:31:46;;;;;;;12.95;7.60;;;;;;;;;;5066590;28;20058;-68
2022/03/29 05:34:16;;;;;;;10.98;7.72;;;;;;;;;;5065364;28;20057;-68
2022/03/29 05:36:44;;;;;;;11.88;8.30;;;;;;;;;;5065272;28;20461;-67
2022/03/29 05:39:10;;;;;;;10.75;7.55;;;;;;;;;;5064748;28;20037;-68
2022/03/29 05:41:36;;;;;;;9.73;7.40;;;;;;;;;;5064856;28;20029;-69
2022/03/29 05:44:02;;;;;;;11.63;7.95;;;;;;;;;;5066935;28;20548;-68
2022/03/29 05:49:13;;;;;;;11.52;8.20;;;;;;;;;;5066491;28;20135;-67
2022/03/29 05:51:39;;;;;;;10.82;7.15;;;;;;;;;;5067056;28;20040;-67
2022/03/29 05:54:06;;;;;;;9.90;7.38;;;;;;;;;;5066483;28;20054;-67
2022/03/29 05:56:32;;;;;;;9.68;7.35;;;;;;;;;;5065080;28;20044;-67
2022/03/29 05:58:58;;;;;;;9.93;6.85;;;;;;;;;;5064914;28;20406;-66
2022/03/29 06:01:25;;;;;;;10.77;7.35;;;;;;;;;;5065219;28;20033;-66
2022/03/29 06:03:51;;;;;;;12.60;7.55;;;;;;;;;;5064516;28;20036;-67
2022/03/29 06:06:17;;;;;;;11.35;7.20;;;;;;;;;;5048397;28;20388;-67
2022/03/29 06:08:43;;;;;;;9.38;7.43;;;;;;;;;;5064721;28;20576;-67
2022/03/29 06:11:09;;;;;;;12.68;7.07;;;;;;;;;;5062506;28;20402;-67
2022/03/29 06:13:36;;;;;;;10.07;6.78;;;;;;;;;;5065220;28;20036;-67
2022/03/29 06:16:05;;;;;;;10.70;6.95;;;;;;;;;;5063901;28;20040;-67
2022/03/29 06:18:31;;;;;;;11.38;7.60;;;;;;;;;;5065701;28;20066;-67
2022/03/29 06:20:57;;;;;;;11.15;7.68;;;;;;;;;;5064479;28;20045;-67
2022/03/29 06:23:23;;;;;;;10.65;7.05;;;;;;;;;;5064553;28;20056;-66
2022/03/29 06:25:50;;;;;;;10.48;6.93;;;;;;;;;;5064781;28;20044;-66
2022/03/29 06:28:17;;;;;;;9.07;7.07;;;;;;;;;;5064600;28;20418;-68
2022/03/29 06:30:43;;;;;;;12.23;7.38;;;;;;;;;;5063971;28;20048;-66
2022/03/29 06:33:10;;;;;;;9.85;6.68;;;;;;;;;;5064041;28;20410;-67
2022/03/29 06:35:38;;;;;;;11.02;7.82;;;;;;;;;;5065557;28;20152;-68
2022/03/29 06:38:05;;;;;;;11.88;7.75;;;;;;;;;;5063414;28;20072;-68
2022/03/29 06:40:31;;;;;;;10.85;7.35;;;;;;;;;;5067516;28;20083;-68
2022/03/29 06:42:57;;;;;;;12.25;7.72;;;;;;;;;;5069932;28;20410;-68
2022/03/29 06:45:24;;;;;;;12.52;8.15;;;;;;;;;;5051643;28;20076;-67
2022/03/29 06:47:50;;;;;;;10.68;7.20;;;;;;;;;;5068825;28;20041;-67
2022/03/29 06:50:16;;;;;;;10.43;7.00;;;;;;;;;;5067683;28;20517;-68
2022/03/29 06:52:44;;;;;;;11.98;7.13;;;;;;;;;;5068499;28;20043;-67
2022/03/29 06:55:12;;;;;;;10.10;7.40;;;;;;;;;;5068342;28;20506;-67
2022/03/29 06:57:38;;;;;;;11.05;7.30;;;;;;;;;;5051878;28;20056;-68
2022/03/29 07:00:05;;;;;;;9.23;6.70;;;;;;;;;;5051941;28;20093;-68
2022/03/29 07:02:31;;;;;;;17.02;7.47;;;;;;;;;;5069702;28;20053;-66
2022/03/29 07:04:57;;;;;;;12.55;7.43;;;;;;;;;;5068453;28;20376;-67
2022/03/29 07:07:23;;;;;;;12.60;7.03;;;;;;;;;;5068272;28;20139;-66
2022/03/29 07:12:46;;;;;;;14.48;6.93;;;;;;;;;;5067415;28;20102;-66
2022/03/29 07:15:12;;;;;;;10.52;7.00;;;;;;;;;;5068212;28;20071;-67
2022/03/29 07:17:38;;;;;;;10.75;7.57;;;;;;;;;;5067257;28;20055;-68
2022/03/29 07:20:04;;;;;;;10.40;6.90;;;;;;;;;;5067339;28;20044;-67
2022/03/29 07:22:30;;;;;;;11.35;6.72;;;;;;;;;;5066878;28;20041;-69
2022/03/29 07:24:56;;;;;;;11.80;7.30;;;;;;;;;;5068608;28;20043;-68
2022/03/29 07:27:22;;;;;;;10.85;7.22;;;;;;;;;;5066987;28;20045;-67
2022/03/29 07:29:49;;;;;;;11.52;6.75;;;;;;;;;;5067555;28;20040;-66
2022/03/29 07:32:16;;;;;;;10.18;6.80;;;;;;;;;;5066872;28;20098;-67
2022/03/29 07:34:42;;;;;;;10.77;6.75;;;;;;;;;;5068910;28;20052;-67
2022/03/29 07:37:08;;;;;;;14.95;6.72;;;;;;;;;;5069350;28;20410;-67
2022/03/29 07:39:34;;;;;;;13.27;6.30;;;;;;;;;;5068384;28;20047;-67
2022/03/29 07:42:01;;;;;;;12.07;7.13;;;;;;;;;;5068843;28;20497;-68
2022/03/29 07:44:27;;;;;;;11.60;7.22;;;;;;;;;;5069015;28;20044;-68
2022/03/29 07:46:53;;;;;;;13.35;6.93;;;;;;;;;;5067617;28;20059;-68
2022/03/29 07:49:19;;;;;;;10.80;6.50;;;;;;;;;;5068035;28;20048;-68
2022/03/29 07:51:45;;;;;;;9.32;6.55;;;;;;;;;;5067050;28;20133;-68
2022/03/29 07:54:11;;;;;;;11.50;6.40;;;;;;;;;;5068870;28;20041;-68
2022/03/29 07:56:37;;;;;;;13.23;7.20;;;;;;;;;;5067966;28;20127;-71
2022/03/29 07:59:03;;;;;;;12.18;6.35;;;;;;;;;;5068975;28;20048;-71
2022/03/29 08:01:29;;;;;;;11.85;5.78;;;;;;;;;;5068766;28;20079;-71
2022/03/29 08:03:55;;;;;;;10.07;5.78;;;;;;;;;;5051279;28;20048;-72
2022/03/29 08:06:22;;;;;;;11.27;5.72;;;;;;;;;;5069189;28;20070;-72
2022/03/29 08:08:48;;;;;;;11.27;5.93;;;;;;;;;;5069760;28;20040;-71
2022/03/29 08:11:14;;;;;;;8.30;5.82;;;;;;;;;;5067282;28;20051;-72
2022/03/29 08:13:40;;;;;;;8.70;5.45;;;;;;;;;;5067351;28;20045;-72
2022/03/29 08:16:06;;;;;;;12.35;5.53;;;;;;;;;;5070284;28;20072;-72
2022/03/29 08:18:35;;;;;;;10.25;5.43;;;;;;;;;;5069235;28;20566;-72
2022/03/29 08:21:01;;;;;;;7.68;4.90;;;;;;;;;;5082753;28;20460;-73
2022/03/29 08:23:28;;;;;;;9.32;5.45;;;;;;;;;;5070201;28;20082;-72
2022/03/29 08:25:54;;;;;;;6.45;4.60;;;;;;;;;;5069279;28;20067;-72
2022/03/29 08:28:21;;;;;;;9.25;5.18;;;;;;;;;;5068856;28;20052;-71
2022/03/29 08:30:47;;;;;;;9.93;4.38;;;;;;;;;;5067404;28;20094;-71
2022/03/29 08:33:13;;;;;;;8.15;4.55;;;;;;;;;;5017621;28;20364;-72
2022/03/29 08:35:42;;;;;;;10.18;4.90;;;;;;;;;;5048947;28;20060;-71
2022/03/29 08:38:08;;;;;;;7.30;4.93;;;;;;;;;;5069745;28;20059;-74
2022/03/29 08:40:34;;;;;;;8.25;4.60;;;;;;;;;;5067280;28;20075;-71
2022/03/29 08:43:00;;;;;;;8.27;4.80;;;;;;;;;;5068762;28;20041;-71
2022/03/29 08:45:28;;;;;;;9.65;4.60;;;;;;;;;;5069642;28;20427;-71
2022/03/29 08:47:57;;;;;;;7.55;4.80;;;;;;;;;;5069484;28;20059;-71
2022/03/29 08:50:24;;;;;;;9.15;5.32;;;;;;;;;;5067955;28;20048;-72
2022/03/29 08:52:51;;;;;;;10.50;5.97;;;;;;;;;;5068754;28;20048;-70
2022/03/29 08:55:25;;;;;;;19.20;7.88;;;;;;;;;;5069325;28;20465;-71
2022/03/29 08:57:55;;;;;;;18.20;8.55;;;;;;;;;;5067650;28;20106;-70
2022/03/29 09:00:21;;;;;;;;;;;;;;;;;;5069258;28;20117;-70
2022/03/29 09:02:47;;;;;;;15.63;8.40;;;;;;;;;;5050511;28;20327;-69
2022/03/29 09:05:14;;;;;;;13.80;8.13;;;;;;;;;;5066501;28;20124;-71
2022/03/29 09:07:47;;;;;;;25.90;9.95;;;;;;;;;;5067466;28;20037;-71
2022/03/29 09:10:13;;;;;;;15.35;8.95;;;;;;;;;;5067768;28;20123;-69
2022/03/29 09:12:39;;;;;;;21.10;9.38;;;;;;;;;;5065777;28;20055;-70
2022/03/29 09:15:06;;;;;;;17.25;10.00;;;;;;;;;;5067653;28;20044;-69
2022/03/29 09:17:35;;;;;;;24.13;11.60;;;;;;;;;;5068539;28;20045;-69
2022/03/29 09:20:06;;;;;;;21.58;10.45;;;;;;;;;;5066488;28;20056;-69
2022/03/29 09:22:40;;;;;;;16.10;10.85;;;;;;;;;;5068421;28;20049;-70
2022/03/29 09:25:07;;;;;;;23.40;10.95;;;;;;;;;;5067913;28;20043;-70
2022/03/29 09:27:52;;;;;;;17.42;10.25;;;;;;;;;;5067998;28;20075;-70
2022/03/29 09:30:18;;;;;;;20.00;10.50;;;;;;;;;;5068579;28;20040;-70
2022/03/29 09:32:52;;;;;;;23.55;10.88;;;;;;;;;;5066973;28;20060;-70
2022/03/29 09:35:18;;;;;;;19.52;11.13;;;;;;;;;;5067912;28;20126;-70
2022/03/29 09:37:45;;;;;;;18.17;10.30;;;;;;;;;;5068042;28;20056;-70
2022/03/29 09:40:12;;;;;;;17.20;10.43;;;;;;;;;;5049586;28;20052;-70
2022/03/29 09:42:42;;;;;;;19.98;9.65;;;;;;;;;;5067586;28;20033;-70
2022/03/29 09:45:09;;;;;;;15.23;10.18;;;;;;;;;;5067586;28;20041;-70
2022/03/29 09:47:35;;;;;;;18.42;9.88;;;;;;;;;;5066785;28;20040;-70
2022/03/29 09:50:08;;;;;;;15.63;9.68;;;;;;;;;;5066699;28;20048;-70
2022/03/29 09:52:38;;;;;;;15.68;9.57;;;;;;;;;;5068209;28;20049;-70
2022/03/29 09:55:07;;;;;;;15.63;8.77;;;;;;;;;;5065574;28;20608;-70
2022/03/29 09:57:41;;;;;;;19.17;9.70;;;;;;;;;;5068170;28;20503;-70
2022/03/29 10:00:08;;;;;;;15.48;8.90;;;;;;;;;;5067777;28;20051;-70
2022/03/29 10:02:36;;;;;;;15.43;8.68;;;;;;;;;;5067876;28;20044;-70
2022/03/29 10:05:03;;;;;;;13.43;8.50;;;;;;;;;;5066198;28;20049;-70
2022/03/29 10:07:32;;;;;;;13.45;8.93;;;;;;;;;;5066451;28;20499;-70
2022/03/29 10:09:58;;;;;;;15.85;8.90;;;;;;;;;;5066313;28;20048;-70
2022/03/29 10:12:25;;;;;;;16.60;8.38;;;;;;;;;;5066899;28;20041;-70
2022/03/29 10:14:54;;;;;;;13.80;8.07;;;;;;;;;;5068760;28;20044;-70
2022/03/29 10:17:22;;;;;;;14.43;8.20;;;;;;;;;;5071053;28;20048;-70
2022/03/29 10:19:49;;;;;;;16.63;7.47;;;;;;;;;;5069964;28;20079;-70
2022/03/29 10:22:15;;;;;;;14.90;7.57;;;;;;;;;;5071321;28;20048;-70
2022/03/29 10:24:41;;;;;;;13.98;8.05;;;;;;;;;;5069688;28;20048;-70
2022/03/29 10:27:08;;;;;;;11.27;6.90;;;;;;;;;;5070518;28;20139;-70
2022/03/29 10:29:35;;;;;;;12.43;7.05;;;;;;;;;;5071393;28;20403;-69
2022/03/29 10:32:07;;;;;;;12.63;7.45;;;;;;;;;;5071280;28;20040;-70
2022/03/29 10:34:40;;;;;;;11.70;6.82;;;;;;;;;;5069494;28;20135;-70
2022/03/29 10:37:14;;;;;;;13.95;7.65;;;;;;;;;;5053233;28;20041;-69
2022/03/29 10:39:49;;;;;;;13.68;7.47;;;;;;;;;;5070963;28;20056;-70
2022/03/29 10:42:29;;;;;;;13.40;7.03;;;;;;;;;;5069752;28;20048;-70
2022/03/29 10:44:58;;;;;;;11.55;6.90;;;;;;;;;;5052816;28;20465;-70
2022/03/29 10:47:28;;;;;;;14.95;7.57;;;;;;;;;;5071389;28;20451;-70
2022/03/29 10:49:54;;;;;;;12.65;6.78;;;;;;;;;;5071745;28;20080;-70
2022/03/29 10:52:20;;;;;;;15.50;7.53;;;;;;;;;;5068151;28;20070;-70
2022/03/29 10:54:47;;;;;;;12.60;6.72;;;;;;;;;;5071079;28;20044;-69
2022/03/29 10:57:16;;;;;;;13.80;6.85;;;;;;;;;;5070106;28;20410;-69
2022/03/29 10:59:43;;;;;;;10.77;6.57;;;;;;;;;;5071711;28;20048;-70
2022/03/29 11:02:27;;;;;;;12.60;6.35;;;;;;;;;;5070607;28;20131;-70
2022/03/29 11:05:05;;;;;;;11.38;5.97;;;;;;;;;;5070677;28;20063;-70
2022/03/29 11:07:36;;;;;;;11.30;5.73;;;;;;;;;;5071376;28;20037;-69
2022/03/29 11:10:16;;;;;;;11.20;5.90;;;;;;;;;;5071752;28;20118;-70
2022/03/29 11:12:43;;;;;;;;;;;;;;;;;;5070102;28;20044;-69
2022/03/29 11:15:24;;;;;;;10.50;6.22;;;;;;;;;;5071009;28;19920;-69
2022/03/29 11:17:51;;;;;;;9.80;5.80;;;;;;;;;;5071496;28;20059;-70
2022/03/29 11:20:36;;;;;;;10.52;5.53;;;;;;;;;;5069681;28;20044;-70
2022/03/29 11:23:06;;;;;;;12.00;5.97;;;;;;;;;;5070710;28;20131;-70
2022/03/29 11:25:40;;;;;;;11.77;5.22;;;;;;;;;;5062843;28;20155;-70
2022/03/29 11:28:17;;;;;;;10.23;5.22;;;;;;;;;;5069857;28;20044;-71
2022/03/29 11:30:43;;;;;;;10.75;5.90;;;;;;;;;;5070215;28;20118;-70
2022/03/29 11:33:10;;;;;;;10.50;5.60;;;;;;;;;;5052051;28;20040;-70
2022/03/29 11:35:38;;;;;;;10.52;5.18;;;;;;;;;;5070427;28;20193;-70
2022/03/29 11:38:11;;;;;;;11.98;5.57;;;;;;;;;;5070514;28;20048;-70
2022/03/29 11:40:37;;;;;;;11.23;5.82;;;;;;;;;;5070219;28;20447;-71
2022/03/29 11:43:10;;;;;;;9.93;5.38;;;;;;;;;;5070104;28;20048;-70
2022/03/29 11:45:42;;;;;;;11.13;6.15;;;;;;;;;;5052215;28;20135;-70
2022/03/29 11:48:12;;;;;;;11.88;6.40;;;;;;;;;;5071306;28;20048;-71
2022/03/29 11:50:45;;;;;;;10.77;5.63;;;;;;;;;;5070424;28;20048;-72
2022/03/29 11:53:20;;;;;;;11.05;6.00;;;;;;;;;;5068988;28;20417;-70
2022/03/29 11:55:58;;;;;;;10.40;6.45;;;;;;;;;;5071154;28;20410;-70
2022/03/29 11:58:26;;;;;;;13.15;7.18;;;;;;;;;;5070595;28;20053;-71
2022/03/29 12:00:56;;;;;;;12.63;7.70;;;;;;;;;;5070554;28;20462;-71
2022/03/29 12:03:26;;;;;;;10.65;7.15;;;;;;;;;;5068832;28;20074;-71
2022/03/29 12:06:01;;;;;;;13.73;7.63;;;;;;;;;;5069228;28;20044;-70
2022/03/29 12:08:42;;;;;;;16.05;7.75;;;;;;;;;;5068849;28;20044;-70
2022/03/29 12:11:11;;;;;;;11.57;7.32;;;;;;;;;;5070648;28;20497;-70
2022/03/29 12:13:37;;;;;;;14.43;7.90;;;;;;;;;;5069864;28;20051;-70
2022/03/29 12:16:19;;;;;;;11.32;7.60;;;;;;;;;;5068601;28;20055;-69
2022/03/29 12:18:46;;;;;;;14.90;8.23;;;;;;;;;;5070331;28;20040;-69
2022/03/29 12:21:13;;;;;;;12.52;7.38;;;;;;;;;;5062409;28;20168;-69
2022/03/29 12:23:41;;;;;;;14.68;7.45;;;;;;;;;;5068761;28;20131;-69
2022/03/29 12:26:08;;;;;;;14.75;7.60;;;;;;;;;;5068228;28;20069;-68
2022/03/29 12:28:34;;;;;;;12.15;7.55;;;;;;;;;;5068167;28;20571;-68
2022/03/29 12:31:00;;;;;;;14.40;7.88;;;;;;;;;;5068275;28;20072;-70
2022/03/29 12:33:26;;;;;;;17.02;8.13;;;;;;;;;;5069120;28;20044;-69
2022/03/29 12:36:02;;;;;;;14.73;7.53;;;;;;;;;;5068457;28;20117;-68
2022/03/29 12:38:38;;;;;;;13.57;7.13;;;;;;;;;;5069906;28;20075;-69
2022/03/29 12:41:05;;;;;;;13.20;7.30;;;;;;;;;;5069499;28;20139;-68
2022/03/29 12:43:33;;;;;;;50.47;8.45;;;;;;;;;;5068404;28;20052;-66
2022/03/29 12:46:00;;;;;;;11.35;6.40;;;;;;;;;;5067689;28;20044;-67
2022/03/29 12:48:26;;;;;;;18.20;7.40;;;;;;;;;;5068111;28;20551;-66
2022/03/29 12:50:53;;;;;;;10.63;6.47;;;;;;;;;;5069778;28;20135;-66
2022/03/29 12:53:19;;;;;;;15.73;6.03;;;;;;;;;;5068884;28;20062;-66
2022/03/29 12:55:55;;;;;;;15.27;6.70;;;;;;;;;;5069594;28;20048;-67
2022/03/29 12:58:37;;;;;;;14.63;6.53;;;;;;;;;;5067979;28;20052;-67
2022/03/29 13:01:04;;;;;;;12.38;6.22;;;;;;;;;;5068700;28;20083;-67
2022/03/29 13:03:37;;;;;;;12.18;6.20;;;;;;;;;;5069225;28;20052;-67
2022/03/29 13:06:03;;;;;;;15.13;6.50;;;;;;;;;;5069001;28;20041;-67
2022/03/29 13:08:31;;;;;;;14.82;6.53;;;;;;;;;;5069504;28;20467;-67
2022/03/29 13:10:57;;;;;;;12.25;5.45;;;;;;;;;;5068870;28;20051;-67
2022/03/29 13:13:28;;;;;;;11.40;6.20;;;;;;;;;;5069017;28;20469;-67
2022/03/29 13:15:57;;;;;;;12.60;4.95;;;;;;;;;;5069127;28;20045;-67
2022/03/29 13:18:30;;;;;;;9.68;5.82;;;;;;;;;;5068966;28;20333;-66
2022/03/29 13:21:06;;;;;;;12.27;5.55;;;;;;;;;;5067038;28;20089;-68
2022/03/29 13:23:32;;;;;;;12.43;5.30;;;;;;;;;;5065711;28;20575;-67
2022/03/29 13:25:59;;;;;;;9.98;5.15;;;;;;;;;;5067385;28;20086;-66
2022/03/29 13:28:26;;;;;;;11.82;5.20;;;;;;;;;;5065196;28;20045;-66
2022/03/29 13:30:52;;;;;;;11.30;5.60;;;;;;;;;;5065222;28;20412;-67
2022/03/29 13:33:19;;;;;;;9.13;5.20;;;;;;;;;;5066869;28;20047;-68
2022/03/29 13:35:46;;;;;;;11.48;5.03;;;;;;;;;;5066558;28;20063;-66
2022/03/29 13:38:12;;;;;;;10.40;4.95;;;;;;;;;;5066148;28;20459;-67
2022/03/29 13:40:38;;;;;;;11.70;5.05;;;;;;;;;;5066941;28;20036;-67
2022/03/29 13:43:04;;;;;;;9.73;4.50;;;;;;;;;;5067023;28;20068;-67
2022/03/29 13:45:31;;;;;;;10.98;5.70;;;;;;;;;;5064345;28;20044;-67
2022/03/29 13:47:58;;;;;;;8.35;4.30;;;;;;;;;;5064679;28;20043;-67
2022/03/29 13:50:24;;;;;;;10.85;4.57;;;;;;;;;;5066296;28;20052;-67
2022/03/29 13:52:50;;;;;;;11.65;4.72;;;;;;;;;;5061277;28;20040;-66
2022/03/29 13:55:16;;;;;;;15.05;4.95;;;;;;;;;;5066479;28;20051;-66
2022/03/29 13:57:43;;;;;;;16.02;4.85;;;;;;;;;;5066610;28;20041;-65
2022/03/29 14:00:09;;;;;;;10.57;4.30;;;;;;;;;;5066216;28;20072;-65
2022/03/29 14:02:35;;;;;;;17.13;4.57;;;;;;;;;;5067308;28;20040;-65
2022/03/29 14:05:01;;;;;;;12.45;4.18;;;;;;;;;;5066615;28;20055;-65
2022/03/29 14:07:28;;;;;;;7.20;3.85;;;;;;;;;;5063273;28;20049;-65
2022/03/29 14:09:55;;;;;;;8.95;4.65;;;;;;;;;;5065939;28;20186;-65
2022/03/29 14:12:22;;;;;;;12.23;4.30;;;;;;;;;;5065440;28;20541;-66
2022/03/29 14:14:48;;;;;;;11.32;4.70;;;;;;;;;;5066162;28;20058;-65
2022/03/29 14:17:14;;;;;;;10.70;4.32;;;;;;;;;;5066453;28;20040;-66
2022/03/29 14:19:40;;;;;;;11.35;4.65;;;;;;;;;;5067131;28;20187;-65
2022/03/29 14:22:06;;;;;;;9.05;4.47;;;;;;;;;;5065829;28;20163;-65
2022/03/29 14:24:32;;;;;;;8.90;4.10;;;;;;;;;;5066231;28;20056;-65
2022/03/29 14:26:59;;;;;;;12.40;4.18;;;;;;;;;;5066504;28;20040;-65
2022/03/29 14:29:27;;;;;;;11.65;4.10;;;;;;;;;;5066522;28;20045;-65
2022/03/29 14:31:53;;;;;;;7.77;3.83;;;;;;;;;;5061217;28;20048;-65
2022/03/29 14:34:19;;;;;;;8.80;4.38;;;;;;;;;;5064095;28;20737;-65
2022/03/29 14:36:46;;;;;;;10.10;4.60;;;;;;;;;;5066025;28;20044;-65
2022/03/29 14:39:12;;;;;;;9.80;4.05;;;;;;;;;;5066126;28;20063;-65
2022/03/29 14:41:38;;;;;;;7.25;4.18;;;;;;;;;;5064303;28;20482;-65